TZDO2: Arkansas Rv at SH 344 nr Tulsa, OK

                                SHEF ID:       TZDO2     Arkansas Rv at SH 344 nr Tulsa, OK
STATION TYPE:

STAGE RIV-FLOW BAT-LOAD
ft cfs volt
Ccp-Rev Ccp-Rev Ccp-Rev
(America/Chicago)
05/04 00:00 10.38 6083 12.69
05/04 01:00 10.41 6202 12.67
05/04 02:00 10.36 6005 12.64
05/04 03:00 10.40 6162 12.63
05/04 04:00 10.43 6282 12.59
05/04 05:00 10.43 6282 12.58
05/04 06:00 10.43 6282 12.57
05/04 07:00 10.43 6282 12.56
05/04 08:00 10.43 6282 12.61
05/04 09:00 10.40 6162 12.65
05/04 10:00 10.38 6083 12.68
05/04 11:00 10.38 6083 12.73
05/04 12:00 10.39 6123 12.82
05/04 13:00 10.38 6083 13.03
05/04 14:00 10.36 6005 13.19
05/04 15:00 10.38 6083 13.15
05/04 16:00 10.36 6005 13.05
05/04 17:00 10.38 6083 12.98
05/04 18:00 10.38 6083 12.94
05/04 19:00 10.36 6005 12.90
05/04 20:00 10.40 6162 12.83
05/04 21:00 10.41 6202 12.74
05/04 22:00 10.41 6202 12.72
05/04 23:00 ---- ---- ----
Data processed at Tue 05May2026 04:51 GMT

NOTICE: If you are parsing this page

Please convert to using our Data API. Starting early 2026 we will be migrating to: https://water.usace.army.mil with modern pages rendered in JavaScript. When this migration completes you will no longer be able to scrape this page! CWMSDataAPI (CDA)

Timeseries IDs (TSIDs)

TSIDs used from left to right in the data table
GILC.Stage.Inst.1Hour.0.Ccp-Rev
GILC.Flow.Inst.1Hour.0.Ccp-Rev
GILC.Volt-Battery Load.Inst.1Hour.0.Ccp-Rev

                            

All information presented herein is the property of the government of the United States of America and may be revised or deleted at any time without prior notice. Dissemination of this information without the expressed written consent of the Public Affairs Office, Tulsa District U.S. Army Corps of Engineers is strictly prohibited. These data are gathered electronically and, as presented, have NOT undergone any form of quality control. These data are NOT guaranteed to be valid or correct.